createdAt,value
2019-02-27T00:01:27.356Z,3.28
2019-02-27T00:03:53.914Z,3.19
2019-02-27T00:06:20.483Z,3.06
2019-02-27T00:08:47.066Z,3.03
2019-02-27T00:11:13.635Z,2.98
2019-02-27T00:13:40.182Z,2.88
2019-02-27T00:16:10.829Z,2.86
2019-02-27T00:18:35.214Z,2.77
2019-02-27T00:21:01.775Z,2.73
2019-02-27T00:23:28.331Z,2.82
2019-02-27T00:25:54.898Z,3.07
2019-02-27T00:28:23.430Z,3.24
2019-02-27T00:30:50.000Z,3.11
2019-02-27T00:33:16.545Z,2.92
2019-02-27T00:35:43.165Z,2.78
2019-02-27T00:38:09.690Z,2.75
2019-02-27T00:40:39.405Z,2.81
2019-02-27T00:43:04.703Z,2.73
2019-02-27T00:45:31.284Z,2.57
2019-02-27T00:47:57.840Z,2.41
2019-02-27T00:50:24.532Z,2.30
2019-02-27T00:52:51.745Z,2.40
2019-02-27T00:55:18.351Z,2.61
2019-02-27T00:57:44.903Z,2.85
2019-02-27T01:00:13.719Z,2.66
2019-02-27T01:02:40.267Z,2.56
2019-02-27T01:05:09.157Z,2.29
2019-02-27T01:07:35.614Z,2.15
2019-02-27T01:10:02.512Z,2.03
2019-02-27T01:12:29.061Z,1.91
2019-02-27T01:14:55.638Z,1.82
2019-02-27T01:17:23.754Z,1.84
2019-02-27T01:19:50.740Z,1.95
2019-02-27T01:22:17.276Z,2.17
2019-02-27T01:24:43.822Z,2.34
2019-02-27T01:27:10.398Z,2.33
2019-02-27T01:29:36.969Z,2.20
2019-02-27T01:32:03.536Z,1.98
2019-02-27T01:34:30.090Z,1.79
2019-02-27T01:36:57.987Z,1.64
2019-02-27T01:39:25.136Z,1.50
2019-02-27T01:41:51.708Z,1.41
2019-02-27T01:44:18.257Z,1.31
2019-02-27T01:46:44.846Z,1.30
2019-02-27T01:49:13.818Z,1.28
2019-02-27T01:51:39.859Z,1.30
2019-02-27T01:54:06.413Z,1.37
2019-02-27T01:56:32.980Z,1.48
2019-02-27T01:58:59.531Z,1.68
2019-02-27T02:01:29.859Z,1.69
2019-02-27T02:03:54.616Z,1.60
2019-02-27T02:06:21.180Z,1.56
2019-02-27T02:08:48.229Z,1.53
2019-02-27T02:11:15.529Z,1.48
2019-02-27T02:14:21.126Z,1.47
2019-02-27T02:17:24.281Z,1.61
2019-02-27T02:20:26.987Z,1.75
2019-02-27T02:23:24.350Z,1.72
2019-02-27T02:26:37.067Z,1.83
2019-02-27T02:29:31.149Z,1.46
2019-02-27T02:32:07.996Z,1.21
2019-02-27T02:35:00.417Z,1.05
2019-02-27T02:37:52.053Z,0.88
2019-02-27T02:40:45.043Z,0.90
2019-02-27T02:43:41.536Z,0.83
2019-02-27T02:46:22.988Z,0.65
2019-02-27T02:49:08.530Z,0.60
2019-02-27T02:52:17.193Z,0.55
2019-02-27T02:55:21.592Z,0.58
2019-02-27T02:58:02.287Z,0.77
2019-02-27T03:01:00.131Z,0.64
2019-02-27T03:03:40.816Z,0.55
2019-02-27T03:06:57.418Z,0.52
2019-02-27T03:10:18.182Z,0.54
2019-02-27T03:13:44.815Z,0.32
2019-02-27T03:16:41.114Z,0.20
2019-02-27T03:20:06.430Z,0.07
2019-02-27T03:22:43.659Z,-0.02
2019-02-27T03:25:26.109Z,-0.03
2019-02-27T03:28:33.504Z,-0.08
2019-02-27T03:31:19.454Z,-0.15
2019-02-27T03:34:29.790Z,-0.17
2019-02-27T03:37:21.257Z,-0.16
2019-02-27T03:40:23.903Z,-0.13
2019-02-27T03:43:35.697Z,-0.13
2019-02-27T03:49:25.798Z,0.07
2019-02-27T03:52:35.901Z,0.31
2019-02-27T03:55:24.048Z,0.45
2019-02-27T03:59:07.502Z,0.43
2019-02-27T04:02:24.242Z,0.29
2019-02-27T04:05:15.840Z,0.28
2019-02-27T04:08:18.267Z,0.56
2019-02-27T04:10:44.891Z,0.55
2019-02-27T04:13:11.459Z,0.52
2019-02-27T04:15:38.061Z,0.35
2019-02-27T04:18:03.927Z,0.17
2019-02-27T04:20:30.464Z,0.08
2019-02-27T04:22:57.015Z,0.00
2019-02-27T04:25:23.613Z,-0.09
2019-02-27T04:27:55.261Z,0.09
2019-02-27T04:30:18.698Z,0.24
2019-02-27T04:32:48.786Z,0.49
2019-02-27T04:35:13.714Z,0.67
2019-02-27T04:37:40.257Z,0.57
2019-02-27T04:40:10.817Z,0.42
2019-02-27T04:42:35.276Z,0.35
2019-02-27T04:45:01.884Z,0.40
2019-02-27T04:47:29.246Z,0.41
2019-02-27T04:49:56.317Z,0.37
2019-02-27T04:52:24.397Z,0.25
2019-02-27T04:54:51.389Z,0.43
2019-02-27T04:57:17.939Z,0.62
2019-02-27T04:59:44.555Z,0.48
2019-02-27T05:02:12.100Z,0.75
2019-02-27T05:04:39.608Z,0.90
2019-02-27T05:07:06.178Z,0.89
2019-02-27T05:09:34.150Z,0.74
2019-02-27T05:12:03.661Z,0.84
2019-02-27T05:14:30.236Z,0.80
2019-02-27T05:16:56.801Z,0.68
2019-02-27T05:19:23.367Z,0.60
2019-02-27T05:21:52.279Z,0.75
2019-02-27T05:24:18.459Z,0.42
2019-02-27T05:26:45.008Z,0.16
2019-02-27T05:29:11.584Z,-0.07
2019-02-27T05:31:38.168Z,-0.24
2019-02-27T05:34:04.715Z,-0.33
2019-02-27T05:36:32.383Z,-0.37
2019-02-27T05:38:59.244Z,-0.33
2019-02-27T05:41:25.807Z,-0.25
2019-02-27T05:43:52.384Z,0.09
2019-02-27T05:46:18.951Z,0.20
2019-02-27T05:48:45.490Z,0.11
2019-02-27T05:51:12.117Z,-0.01
2019-02-27T05:53:38.661Z,-0.18
2019-02-27T05:56:05.275Z,-0.33
2019-02-27T05:58:31.819Z,-0.38
2019-02-27T06:00:58.424Z,-0.44
2019-02-27T06:03:24.964Z,-0.56
2019-02-27T06:05:51.585Z,-0.48
2019-02-27T06:08:18.144Z,-0.43
2019-02-27T06:10:44.810Z,-0.25
2019-02-27T06:13:14.058Z,-0.10
2019-02-27T06:15:39.844Z,-0.37
2019-02-27T06:18:06.394Z,-0.54
2019-02-27T06:20:32.962Z,-0.59
2019-02-27T06:23:04.132Z,-0.67
2019-02-27T06:25:28.016Z,-0.76
2019-02-27T06:27:54.571Z,-0.83
2019-02-27T06:30:21.140Z,-0.86
2019-02-27T06:32:47.713Z,-0.86
2019-02-27T06:35:14.331Z,-0.71
2019-02-27T06:37:40.877Z,-0.21
2019-02-27T06:40:08.636Z,-0.06
2019-02-27T06:42:35.186Z,-0.23
2019-02-27T06:45:01.788Z,-0.11
2019-02-27T06:47:28.335Z,0.06
2019-02-27T06:49:54.951Z,0.03
2019-02-27T06:52:21.516Z,0.09
2019-02-27T06:54:51.936Z,0.16
2019-02-27T06:57:16.565Z,0.17
2019-02-27T06:59:43.107Z,0.15
2019-02-27T07:02:09.681Z,0.13
2019-02-27T07:04:36.490Z,0.14
2019-02-27T07:07:04.699Z,0.19
2019-02-27T07:09:31.252Z,0.22
2019-02-27T07:11:57.825Z,0.29
2019-02-27T07:14:24.368Z,0.42
2019-02-27T07:16:50.934Z,0.47
2019-02-27T07:19:17.487Z,0.55
2019-02-27T07:21:44.152Z,0.66
2019-02-27T07:24:10.709Z,0.70
2019-02-27T07:26:37.412Z,0.78
2019-02-27T07:29:03.941Z,0.87
2019-02-27T07:31:30.528Z,0.92
2019-02-27T07:33:57.071Z,1.02
2019-02-27T07:36:23.648Z,1.12
2019-02-27T07:38:50.216Z,1.67
2019-02-27T07:41:20.267Z,1.75
2019-02-27T07:43:45.253Z,1.96
2019-02-27T07:46:11.817Z,2.48
2019-02-27T07:48:38.392Z,2.77
2019-02-27T07:51:04.964Z,2.99
2019-02-27T07:53:31.512Z,3.12
2019-02-27T07:55:58.098Z,3.26
2019-02-27T07:58:24.646Z,3.62
2019-02-27T08:00:51.216Z,4.12
2019-02-27T08:03:17.936Z,5.04
2019-02-27T08:05:44.824Z,5.71
2019-02-27T08:08:11.526Z,7.54
2019-02-27T08:10:38.195Z,10.76
2019-02-27T08:13:04.792Z,13.14
2019-02-27T08:15:31.376Z,13.28
2019-02-27T08:17:58.739Z,13.15
2019-02-27T08:20:25.442Z,14.54
2019-02-27T08:22:52.039Z,15.43
2019-02-27T08:25:18.632Z,16.65
2019-02-27T08:27:45.211Z,18.06
2019-02-27T08:30:14.163Z,18.20
2019-02-27T08:32:40.753Z,18.11
2019-02-27T08:35:07.343Z,18.83
2019-02-27T08:37:33.914Z,20.80
2019-02-27T08:40:00.483Z,22.67
2019-02-27T08:42:27.069Z,24.91
2019-02-27T08:44:53.699Z,27.07
2019-02-27T08:47:20.304Z,28.94
2019-02-27T08:49:46.894Z,30.08
2019-02-27T08:52:16.225Z,31.32
2019-02-27T08:54:41.951Z,32.43
2019-02-27T08:57:08.546Z,32.94
2019-02-27T08:59:37.010Z,33.71
2019-02-27T09:02:03.641Z,33.04
2019-02-27T09:04:30.214Z,33.42
2019-02-27T09:07:02.332Z,33.50
2019-02-27T09:09:25.398Z,33.54
2019-02-27T09:11:51.967Z,34.48
2019-02-27T09:14:18.553Z,34.64
2019-02-27T09:16:45.133Z,35.37
2019-02-27T09:21:39.305Z,35.91
2019-02-27T09:24:05.883Z,35.40
2019-02-27T09:26:36.099Z,34.25
2019-02-27T09:29:00.956Z,34.13
2019-02-27T09:31:27.671Z,34.18
2019-02-27T09:33:54.263Z,34.40
2019-02-27T09:36:21.200Z,34.48
2019-02-27T09:38:47.799Z,34.82
2019-02-27T09:41:14.932Z,34.97
2019-02-27T09:43:41.504Z,35.17
2019-02-27T09:46:08.091Z,34.56
2019-02-27T09:48:34.686Z,32.98
2019-02-27T09:51:01.490Z,33.33
2019-02-27T09:53:28.070Z,33.43
2019-02-27T09:55:54.881Z,33.54
2019-02-27T09:58:22.651Z,34.31
2019-02-27T10:00:52.115Z,33.95
2019-02-27T10:03:21.199Z,35.46
2019-02-27T10:05:47.817Z,35.46
2019-02-27T10:08:14.512Z,36.82
2019-02-27T10:10:44.742Z,38.35
2019-02-27T10:13:09.575Z,35.55
2019-02-27T10:15:36.137Z,35.61
2019-02-27T10:18:02.729Z,35.24
2019-02-27T10:20:29.370Z,36.18
2019-02-27T10:22:55.990Z,35.01
2019-02-27T10:25:22.554Z,36.70
2019-02-27T10:27:49.152Z,37.47
2019-02-27T10:30:16.728Z,38.73
2019-02-27T10:32:43.670Z,36.22
2019-02-27T10:35:10.244Z,35.51
2019-02-27T10:37:36.934Z,37.19
2019-02-27T10:40:04.094Z,35.90
2019-02-27T10:42:30.695Z,33.36
2019-02-27T10:44:57.259Z,32.69
2019-02-27T10:47:23.855Z,29.97
2019-02-27T10:49:50.436Z,28.68
2019-02-27T10:52:16.995Z,29.99
2019-02-27T10:54:43.584Z,31.54
2019-02-27T10:57:10.176Z,34.36
2019-02-27T10:59:36.749Z,27.97
2019-02-27T11:02:03.339Z,27.97
2019-02-27T11:04:29.932Z,28.54
2019-02-27T11:06:56.505Z,30.81
2019-02-27T11:09:27.545Z,33.11
2019-02-27T11:11:54.583Z,31.40
2019-02-27T11:14:22.593Z,30.13
2019-02-27T11:16:49.147Z,31.67
2019-02-27T11:19:16.607Z,32.96
2019-02-27T11:21:43.810Z,34.26
2019-02-27T11:24:10.390Z,33.93
2019-02-27T11:26:36.973Z,34.25
2019-02-27T11:29:03.710Z,34.71
2019-02-27T11:31:30.309Z,35.18
2019-02-27T11:33:56.885Z,34.84
2019-02-27T11:36:23.476Z,36.20
2019-02-27T11:38:50.082Z,37.35
2019-02-27T11:41:16.654Z,38.55
2019-02-27T11:43:43.281Z,38.17
2019-02-27T11:46:09.860Z,38.58
2019-02-27T11:48:36.444Z,38.94
2019-02-27T11:51:03.019Z,39.38
2019-02-27T11:53:29.616Z,38.39
2019-02-27T11:55:56.181Z,39.62
2019-02-27T11:58:22.760Z,39.04
2019-02-27T12:00:49.375Z,39.66
2019-02-27T12:03:16.012Z,38.51
2019-02-27T12:05:42.608Z,35.73
2019-02-27T12:08:11.279Z,36.04
2019-02-27T12:10:37.703Z,36.29
2019-02-27T12:13:04.412Z,36.77
2019-02-27T12:15:30.980Z,35.78
2019-02-27T12:18:00.612Z,36.73
2019-02-27T12:20:26.289Z,38.65
2019-02-27T12:22:52.867Z,40.47
2019-02-27T12:25:19.549Z,41.30
2019-02-27T12:27:49.448Z,39.70
2019-02-27T12:30:16.479Z,40.41
2019-02-27T12:32:43.191Z,36.72
2019-02-27T12:35:12.289Z,32.96
2019-02-27T12:37:38.890Z,35.59
2019-02-27T12:40:07.109Z,37.18
2019-02-27T12:42:37.285Z,36.51
2019-02-27T12:45:02.191Z,37.57
2019-02-27T12:47:28.784Z,38.65
2019-02-27T12:49:55.354Z,35.98
2019-02-27T12:52:22.744Z,38.17
2019-02-27T12:54:49.448Z,36.41
2019-02-27T12:57:17.650Z,36.94
2019-02-27T12:59:44.554Z,36.47
2019-02-27T13:02:11.142Z,38.08
2019-02-27T13:04:37.745Z,36.84
2019-02-27T13:07:04.327Z,33.27
2019-02-27T13:09:30.903Z,36.39
2019-02-27T13:11:57.493Z,35.88
2019-02-27T13:14:24.071Z,34.57
2019-02-27T13:16:50.661Z,35.10
2019-02-27T13:19:17.241Z,33.97
2019-02-27T13:21:43.821Z,34.55
2019-02-27T13:24:15.073Z,35.91
2019-02-27T13:26:38.864Z,35.26
2019-02-27T13:29:05.559Z,32.27
2019-02-27T13:31:32.172Z,34.09
2019-02-27T13:33:58.761Z,33.41
2019-02-27T13:36:25.352Z,31.36
2019-02-27T13:38:52.301Z,31.32
2019-02-27T13:41:19.534Z,33.24
2019-02-27T13:43:46.132Z,34.02
2019-02-27T13:46:12.715Z,32.32
2019-02-27T13:48:39.837Z,31.76
2019-02-27T13:51:07.079Z,31.98
2019-02-27T13:53:33.697Z,32.32
2019-02-27T13:56:00.337Z,30.76
2019-02-27T13:58:27.729Z,31.54
2019-02-27T14:00:54.594Z,31.43
2019-02-27T14:03:21.298Z,28.61
2019-02-27T14:05:47.872Z,28.08
2019-02-27T14:08:14.523Z,28.30
2019-02-27T14:10:41.118Z,29.57
2019-02-27T14:13:09.780Z,29.57
2019-02-27T14:15:36.204Z,31.46
2019-02-27T14:18:02.836Z,30.91
2019-02-27T14:20:29.556Z,29.64
2019-02-27T14:22:56.408Z,27.64
2019-02-27T14:25:28.470Z,27.10
2019-02-27T14:27:52.449Z,26.79
2019-02-27T14:30:21.096Z,27.25
2019-02-27T14:32:48.036Z,28.94
2019-02-27T14:35:14.685Z,30.15
2019-02-27T14:37:41.295Z,28.90
2019-02-27T14:40:10.548Z,30.43
2019-02-27T14:42:37.333Z,30.63
2019-02-27T14:45:05.911Z,27.74
2019-02-27T14:47:33.059Z,28.02
2019-02-27T14:50:00.404Z,29.64
2019-02-27T14:52:27.129Z,29.31
2019-02-27T14:54:53.731Z,28.01
2019-02-27T14:57:20.297Z,27.63
2019-02-27T14:59:46.893Z,27.24
2019-02-27T15:02:13.474Z,26.56
2019-02-27T15:04:40.154Z,26.98
2019-02-27T15:07:06.730Z,28.37
2019-02-27T15:09:36.051Z,27.78
2019-02-27T15:12:01.802Z,28.95
2019-02-27T15:14:31.040Z,29.01
2019-02-27T15:16:56.944Z,28.06
2019-02-27T15:19:23.578Z,27.64
2019-02-27T15:21:50.183Z,27.45
2019-02-27T15:24:16.808Z,29.03
2019-02-27T15:26:45.383Z,28.91
2019-02-27T15:29:11.856Z,27.94
2019-02-27T15:31:38.445Z,26.55
2019-02-27T15:34:05.032Z,25.27
2019-02-27T15:36:31.635Z,25.10
2019-02-27T15:38:58.225Z,23.03
2019-02-27T15:41:24.796Z,22.27
2019-02-27T15:43:59.663Z,22.56
2019-02-27T15:46:21.945Z,23.68
2019-02-27T15:48:48.436Z,24.10
2019-02-27T15:51:15.047Z,23.99
2019-02-27T15:53:41.610Z,23.48
2019-02-27T15:56:08.881Z,22.76
2019-02-27T15:58:35.500Z,22.53
2019-02-27T16:01:02.238Z,21.57
2019-02-27T16:03:28.821Z,20.38
2019-02-27T16:05:55.529Z,20.16
2019-02-27T16:08:23.440Z,19.92
2019-02-27T16:10:54.835Z,19.64
2019-02-27T16:13:18.717Z,19.46
2019-02-27T16:15:48.493Z,19.34
2019-02-27T16:18:13.855Z,19.14
2019-02-27T16:20:40.425Z,19.02
2019-02-27T16:23:07.030Z,18.81
2019-02-27T16:25:33.598Z,18.76
2019-02-27T16:28:00.188Z,18.66
2019-02-27T16:30:31.357Z,18.31
2019-02-27T16:32:55.268Z,18.46
2019-02-27T16:35:22.077Z,18.93
2019-02-27T16:37:48.635Z,19.35
2019-02-27T16:40:18.045Z,19.59
2019-02-27T16:42:44.351Z,19.21
2019-02-27T16:45:12.389Z,18.62
2019-02-27T16:47:38.991Z,18.00
2019-02-27T16:50:08.158Z,17.65
2019-02-27T16:52:34.737Z,17.36
2019-02-27T16:55:02.511Z,17.11
2019-02-27T16:57:29.176Z,16.94
2019-02-27T16:59:55.797Z,16.61
2019-02-27T17:02:22.381Z,16.25
2019-02-27T17:04:49.076Z,16.11
2019-02-27T17:07:15.631Z,15.81
2019-02-27T17:09:43.897Z,15.60
2019-02-27T17:12:10.782Z,15.33
2019-02-27T17:14:39.232Z,15.25
2019-02-27T17:17:05.854Z,14.97
2019-02-27T17:19:33.124Z,14.72
2019-02-27T17:22:00.949Z,14.73
2019-02-27T17:24:27.518Z,14.53
2019-02-27T17:26:54.128Z,14.32
2019-02-27T17:29:25.487Z,14.19
2019-02-27T17:31:52.551Z,14.05
2019-02-27T17:34:17.708Z,13.95
2019-02-27T17:36:44.300Z,13.77
2019-02-27T17:39:10.979Z,13.72
2019-02-27T17:41:37.804Z,13.63
2019-02-27T17:44:05.385Z,13.51
2019-02-27T17:46:32.036Z,13.43
2019-02-27T17:48:58.621Z,13.25
2019-02-27T17:51:25.424Z,13.14
2019-02-27T17:53:52.006Z,13.08
2019-02-27T17:56:18.579Z,12.97
2019-02-27T17:58:45.157Z,12.86
2019-02-27T18:01:13.920Z,12.82
2019-02-27T18:03:41.796Z,12.75
2019-02-27T18:06:08.634Z,12.78
2019-02-27T18:08:35.195Z,12.78
2019-02-27T18:11:01.799Z,12.63
2019-02-27T18:13:28.462Z,12.53
2019-02-27T18:15:55.081Z,12.39
2019-02-27T18:18:21.641Z,12.28
2019-02-27T18:20:48.238Z,12.26
2019-02-27T18:23:14.803Z,12.29
2019-02-27T18:25:42.339Z,12.15
2019-02-27T18:28:08.964Z,12.07
2019-02-27T18:30:35.585Z,11.91
2019-02-27T18:33:02.223Z,11.77
2019-02-27T18:35:29.516Z,11.89
2019-02-27T18:37:56.446Z,11.78
2019-02-27T18:40:23.047Z,11.69
2019-02-27T18:42:55.217Z,11.65
2019-02-27T18:45:18.133Z,11.73
2019-02-27T18:47:44.721Z,11.68
2019-02-27T18:50:11.367Z,11.57
2019-02-27T18:52:38.406Z,11.59
2019-02-27T18:55:06.287Z,11.40
2019-02-27T18:57:32.877Z,11.31
2019-02-27T19:00:01.308Z,11.28
2019-02-27T19:02:27.912Z,11.40
2019-02-27T19:04:54.470Z,11.28
2019-02-27T19:07:21.063Z,11.13
2019-02-27T19:09:47.631Z,11.10
2019-02-27T19:12:14.231Z,11.31
2019-02-27T19:14:41.858Z,11.34
2019-02-27T19:17:08.429Z,11.58
2019-02-27T19:19:35.016Z,11.73
2019-02-27T19:22:04.352Z,11.51
2019-02-27T19:24:30.056Z,11.47
2019-02-27T19:26:56.776Z,11.26
2019-02-27T19:29:23.340Z,10.97
2019-02-27T19:31:51.627Z,10.80
2019-02-27T19:34:18.451Z,10.55
2019-02-27T19:36:45.014Z,10.52
2019-02-27T19:39:11.607Z,10.57
2019-02-27T19:41:39.753Z,10.53
2019-02-27T19:44:06.960Z,10.56
2019-02-27T19:46:35.223Z,10.61
2019-02-27T19:49:03.543Z,10.71
2019-02-27T19:51:31.013Z,10.73
2019-02-27T19:53:57.573Z,10.40
2019-02-27T19:56:24.160Z,10.08
2019-02-27T19:58:51.975Z,9.75
2019-02-27T20:01:18.818Z,9.75
2019-02-27T20:03:45.641Z,9.66
2019-02-27T20:06:12.218Z,9.53
2019-02-27T20:08:44.430Z,9.60
2019-02-27T20:11:07.475Z,9.39
2019-02-27T20:13:34.068Z,9.14
2019-02-27T20:16:00.653Z,8.97
2019-02-27T20:18:27.264Z,8.77
2019-02-27T20:20:53.848Z,8.68
2019-02-27T20:23:20.433Z,8.70
2019-02-27T20:25:46.988Z,8.76
2019-02-27T20:28:13.572Z,8.79
2019-02-27T20:30:40.365Z,8.72
2019-02-27T20:33:06.948Z,8.67
2019-02-27T20:35:33.556Z,8.69
2019-02-27T20:38:01.574Z,8.82
2019-02-27T20:40:33.951Z,8.93
2019-02-27T20:42:56.983Z,8.99
2019-02-27T20:45:23.558Z,8.88
2019-02-27T20:47:50.753Z,8.83
2019-02-27T20:50:21.958Z,8.71
2019-02-27T20:52:49.427Z,8.60
2019-02-27T20:55:16.792Z,8.67
2019-02-27T20:57:43.346Z,8.63
2019-02-27T21:00:11.787Z,8.71
2019-02-27T21:02:38.400Z,8.60
2019-02-27T21:05:06.687Z,8.67
2019-02-27T21:07:34.849Z,8.99
2019-02-27T21:10:01.431Z,8.85
2019-02-27T21:12:27.982Z,8.88
2019-02-27T21:14:55.140Z,8.87
2019-02-27T21:17:23.022Z,8.62
2019-02-27T21:19:49.641Z,8.88
2019-02-27T21:22:16.208Z,8.79
2019-02-27T21:24:42.839Z,8.58
2019-02-27T21:27:09.398Z,8.45
2019-02-27T21:29:36.006Z,8.35
2019-02-27T21:32:02.589Z,8.21
2019-02-27T21:34:29.166Z,8.17
2019-02-27T21:36:57.096Z,8.08
2019-02-27T21:39:25.194Z,7.99
2019-02-27T21:41:52.276Z,8.01
2019-02-27T21:44:25.418Z,7.89
2019-02-27T21:46:47.524Z,7.76
2019-02-27T21:49:14.124Z,7.62
2019-02-27T21:51:40.700Z,7.65
2019-02-27T21:54:07.276Z,7.79
2019-02-27T21:56:33.844Z,7.64
2019-02-27T21:59:03.748Z,7.81
2019-02-27T22:01:28.926Z,8.00
2019-02-27T22:03:55.549Z,7.94
2019-02-27T22:06:24.708Z,7.83
2019-02-27T22:08:50.648Z,7.74
2019-02-27T22:11:17.217Z,7.86
2019-02-27T22:13:45.407Z,7.94
2019-02-27T22:16:12.281Z,8.01
2019-02-27T22:18:38.900Z,7.99
2019-02-27T22:21:05.478Z,8.03
2019-02-27T22:23:32.068Z,7.84
2019-02-27T22:25:58.689Z,7.72
2019-02-27T22:28:25.244Z,7.59
2019-02-27T22:30:51.863Z,7.49
2019-02-27T22:33:22.018Z,7.42
2019-02-27T22:35:46.914Z,7.60
2019-02-27T22:38:13.480Z,7.55
2019-02-27T22:40:40.068Z,7.46
2019-02-27T22:43:06.630Z,7.39
2019-02-27T22:45:36.121Z,7.39
2019-02-27T22:48:01.724Z,7.40
2019-02-27T22:50:28.310Z,7.45
2019-02-27T22:52:55.442Z,7.36
2019-02-27T22:55:22.052Z,7.23
2019-02-27T22:57:48.633Z,7.19
2019-02-27T23:01:05.754Z,7.26
2019-02-27T23:03:35.555Z,7.50
2019-02-27T23:06:03.198Z,7.36
2019-02-27T23:08:29.723Z,7.42
2019-02-27T23:10:56.307Z,7.47
2019-02-27T23:13:22.859Z,7.34
2019-02-27T23:15:49.457Z,7.30
2019-02-27T23:18:16.021Z,7.27
2019-02-27T23:20:42.597Z,7.27
2019-02-27T23:23:09.152Z,7.27
2019-02-27T23:25:35.734Z,7.18
2019-02-27T23:28:02.300Z,7.02
2019-02-27T23:30:28.865Z,6.98
2019-02-27T23:32:55.500Z,6.81
2019-02-27T23:35:22.061Z,6.93
2019-02-27T23:37:48.630Z,6.79
2019-02-27T23:40:17.449Z,6.80
2019-02-27T23:42:43.700Z,6.80
2019-02-27T23:45:11.052Z,6.62
2019-02-27T23:47:37.754Z,6.49
2019-02-27T23:50:04.366Z,6.60
2019-02-27T23:52:30.949Z,6.51
2019-02-27T23:54:57.535Z,6.43
2019-02-27T23:57:24.679Z,6.55
2019-02-27T23:59:51.388Z,6.76
